createdAt,value
2018-09-02T00:01:44.911Z,6.50
2018-09-02T00:04:13.450Z,5.67
2018-09-02T00:06:41.910Z,9.60
2018-09-02T00:09:10.411Z,11.07
2018-09-02T00:11:38.881Z,6.27
2018-09-02T00:14:07.383Z,5.87
2018-09-02T00:16:35.867Z,6.60
2018-09-02T00:19:04.362Z,10.07
2018-09-02T00:21:32.790Z,8.10
2018-09-02T00:24:01.274Z,6.80
2018-09-02T00:26:29.763Z,7.37
2018-09-02T00:28:58.233Z,5.23
2018-09-02T00:31:26.684Z,6.53
2018-09-02T00:33:55.306Z,8.13
2018-09-02T00:36:23.724Z,7.20
2018-09-02T00:38:52.240Z,9.20
2018-09-02T00:41:20.738Z,7.10
2018-09-02T00:43:49.222Z,8.27
2018-09-02T00:46:17.659Z,12.90
2018-09-02T00:48:46.163Z,7.67
2018-09-02T00:51:14.655Z,5.97
2018-09-02T00:53:43.214Z,6.70
2018-09-02T00:56:11.705Z,5.37
2018-09-02T00:58:40.187Z,7.43
2018-09-02T01:01:08.675Z,7.77
2018-09-02T01:03:37.180Z,7.33
2018-09-02T01:06:05.790Z,6.93
2018-09-02T01:08:34.260Z,5.80
2018-09-02T01:11:02.727Z,8.07
2018-09-02T01:13:31.195Z,5.47
2018-09-02T01:15:59.702Z,5.67
2018-09-02T01:18:28.241Z,10.87
2018-09-02T01:20:56.720Z,9.93
2018-09-02T01:23:25.189Z,8.07
2018-09-02T01:25:53.637Z,6.67
2018-09-02T01:28:22.149Z,7.47
2018-09-02T01:30:50.623Z,7.60
2018-09-02T01:33:19.106Z,5.97
2018-09-02T01:35:47.539Z,7.10
2018-09-02T01:38:16.006Z,6.73
2018-09-02T01:40:44.479Z,6.70
2018-09-02T01:43:12.962Z,8.10
2018-09-02T01:45:41.447Z,8.37
2018-09-02T01:48:09.966Z,6.53
2018-09-02T01:50:38.430Z,8.17
2018-09-02T01:53:06.900Z,9.10
2018-09-02T01:55:35.435Z,6.73
2018-09-02T01:58:03.978Z,6.40
2018-09-02T02:00:32.445Z,6.43
2018-09-02T02:03:01.235Z,7.53
2018-09-02T02:05:29.727Z,7.47
2018-09-02T02:07:58.160Z,6.50
2018-09-02T02:10:26.617Z,10.27
2018-09-02T02:12:55.066Z,8.47
2018-09-02T02:15:23.571Z,7.20
2018-09-02T02:17:52.015Z,7.33
2018-09-02T02:20:20.470Z,8.30
2018-09-02T02:22:48.885Z,6.70
2018-09-02T02:25:17.363Z,8.33
2018-09-02T02:27:45.870Z,6.20
2018-09-02T02:30:14.381Z,7.63
2018-09-02T02:32:42.815Z,6.63
2018-09-02T02:35:11.333Z,8.67
2018-09-02T02:37:39.801Z,9.57
2018-09-02T02:40:08.360Z,6.27
2018-09-02T02:42:36.826Z,8.23
2018-09-02T02:45:05.714Z,7.90
2018-09-02T02:47:34.503Z,5.80
2018-09-02T02:50:03.029Z,7.67
2018-09-02T02:52:37.363Z,6.87
2018-09-02T02:55:06.277Z,6.77
2018-09-02T02:57:34.741Z,6.40
2018-09-02T03:00:03.224Z,11.00
2018-09-02T03:02:31.675Z,8.00
2018-09-02T03:05:00.157Z,9.30
2018-09-02T03:07:28.630Z,11.20
2018-09-02T03:09:57.140Z,7.77
2018-09-02T03:12:25.585Z,9.30
2018-09-02T03:14:54.071Z,8.97
2018-09-02T03:17:22.515Z,8.17
2018-09-02T03:19:51.049Z,8.27
2018-09-02T03:22:19.493Z,8.67
2018-09-02T03:24:47.963Z,9.13
2018-09-02T03:27:16.414Z,8.13
2018-09-02T03:29:44.925Z,9.57
2018-09-02T03:32:13.408Z,8.23
2018-09-02T03:34:41.916Z,9.30
2018-09-02T03:37:10.366Z,10.13
2018-09-02T03:39:38.813Z,11.97
2018-09-02T03:42:07.292Z,11.33
2018-09-02T03:44:35.817Z,10.90
2018-09-02T03:47:04.457Z,9.80
2018-09-02T03:49:32.939Z,13.83
2018-09-02T03:52:01.408Z,13.23
2018-09-02T03:54:29.902Z,11.83
2018-09-02T03:56:58.351Z,10.87
2018-09-02T03:59:28.912Z,9.47
2018-09-02T04:01:57.396Z,13.70
2018-09-02T04:04:25.902Z,11.10
2018-09-02T04:06:54.385Z,11.10
2018-09-02T04:09:22.948Z,13.17
2018-09-02T04:11:51.412Z,11.13
2018-09-02T04:14:19.911Z,11.63
2018-09-02T04:16:48.386Z,14.00
2018-09-02T04:19:16.863Z,11.60
2018-09-02T04:21:45.319Z,10.03
2018-09-02T04:24:13.802Z,11.87
2018-09-02T04:26:42.242Z,11.07
2018-09-02T04:29:10.722Z,13.30
2018-09-02T04:31:39.170Z,11.50
2018-09-02T04:34:07.710Z,10.50
2018-09-02T04:36:36.183Z,9.23
2018-09-02T04:39:07.496Z,13.63
2018-09-02T04:41:36.194Z,9.77
2018-09-02T04:44:04.751Z,10.27
2018-09-02T04:46:33.178Z,9.10
2018-09-02T04:49:01.863Z,10.93
2018-09-02T04:51:30.296Z,11.80
2018-09-02T04:53:58.767Z,11.77
2018-09-02T04:56:27.183Z,10.30
2018-09-02T04:58:55.686Z,10.80
2018-09-02T05:01:24.210Z,11.27
2018-09-02T05:03:52.690Z,11.47
2018-09-02T05:06:21.142Z,11.70
2018-09-02T05:08:49.654Z,14.90
2018-09-02T05:11:18.069Z,11.87
2018-09-02T05:13:46.529Z,13.20
2018-09-02T05:16:14.988Z,13.43
2018-09-02T05:18:44.904Z,12.00
2018-09-02T05:21:13.382Z,12.80
2018-09-02T05:23:41.863Z,12.70
2018-09-02T05:26:11.630Z,12.67
2018-09-02T05:28:40.101Z,13.67
2018-09-02T05:31:08.572Z,12.20
2018-09-02T05:33:37.099Z,12.70
2018-09-02T05:36:05.709Z,14.37
2018-09-02T05:38:34.169Z,12.60
2018-09-02T05:41:02.623Z,12.90
2018-09-02T05:43:31.065Z,12.47
2018-09-02T05:45:59.510Z,15.23
2018-09-02T05:48:27.993Z,11.70
2018-09-02T05:50:56.436Z,12.50
2018-09-02T05:53:24.914Z,13.30
2018-09-02T05:55:53.370Z,12.93
2018-09-02T05:58:21.860Z,13.50
2018-09-02T06:00:50.307Z,10.93
2018-09-02T06:03:18.780Z,10.57
2018-09-02T06:05:47.322Z,10.50
2018-09-02T06:08:15.806Z,11.67
2018-09-02T06:10:44.278Z,12.03
2018-09-02T06:13:12.786Z,12.63
2018-09-02T06:15:41.231Z,12.13
2018-09-02T06:18:09.731Z,10.97
2018-09-02T06:20:38.186Z,12.97
2018-09-02T06:23:06.659Z,11.00
2018-09-02T06:25:35.138Z,8.07
2018-09-02T06:28:03.612Z,9.10
2018-09-02T06:30:32.070Z,11.33
2018-09-02T06:33:00.651Z,9.50
2018-09-02T06:35:29.136Z,10.50
2018-09-02T06:37:57.860Z,10.77
2018-09-02T06:40:26.643Z,8.30
2018-09-02T06:42:55.374Z,10.13
2018-09-02T06:45:24.021Z,8.87
2018-09-02T06:47:52.495Z,8.73
2018-09-02T06:50:21.156Z,8.93
2018-09-02T06:52:49.661Z,7.73
2018-09-02T06:55:18.093Z,7.60
2018-09-02T06:57:46.823Z,9.90
2018-09-02T07:00:15.245Z,7.23
2018-09-02T07:02:43.836Z,8.17
2018-09-02T07:05:12.294Z,7.40
2018-09-02T07:07:41.242Z,7.20
2018-09-02T07:10:09.760Z,8.00
2018-09-02T07:12:38.215Z,8.77
2018-09-02T07:15:06.752Z,8.13
2018-09-02T07:17:35.271Z,8.47
2018-09-02T07:20:03.832Z,8.33
2018-09-02T07:22:32.264Z,8.00
2018-09-02T07:25:00.762Z,7.77
2018-09-02T07:27:29.254Z,6.97
2018-09-02T07:29:57.730Z,9.43
2018-09-02T07:32:26.230Z,7.83
2018-09-02T07:34:54.741Z,6.90
2018-09-02T07:37:23.194Z,7.67
2018-09-02T07:39:51.663Z,7.40
2018-09-02T07:42:20.094Z,7.33
2018-09-02T07:44:48.614Z,6.97
2018-09-02T07:47:17.093Z,7.33
2018-09-02T07:49:45.608Z,7.60
2018-09-02T07:52:14.067Z,5.50
2018-09-02T07:54:42.584Z,7.23
2018-09-02T07:57:11.078Z,5.50
2018-09-02T07:59:39.569Z,6.30
2018-09-02T08:02:08.064Z,9.33
2018-09-02T08:04:36.555Z,6.37
2018-09-02T08:07:05.069Z,5.70
2018-09-02T08:09:33.619Z,5.03
2018-09-02T08:12:02.200Z,5.40
2018-09-02T08:14:30.818Z,5.03
2018-09-02T08:16:59.342Z,5.80
2018-09-02T08:19:27.942Z,4.70
2018-09-02T08:21:56.503Z,6.57
2018-09-02T08:24:24.970Z,4.97
2018-09-02T08:26:53.505Z,5.33
2018-09-02T08:29:21.995Z,4.80
2018-09-02T08:31:50.556Z,5.60
2018-09-02T08:34:19.095Z,5.23
2018-09-02T08:36:47.633Z,5.43
2018-09-02T08:39:16.229Z,5.67
2018-09-02T08:41:44.701Z,5.87
2018-09-02T08:44:13.246Z,4.47
2018-09-02T08:46:41.710Z,5.23
2018-09-02T08:49:10.257Z,4.80
2018-09-02T08:51:38.781Z,4.73
2018-09-02T08:54:07.351Z,5.53
2018-09-02T08:56:35.901Z,4.47
2018-09-02T08:59:04.419Z,4.93
2018-09-02T09:01:33.386Z,4.63
2018-09-02T09:04:01.835Z,4.40
2018-09-02T09:06:30.395Z,4.90
2018-09-02T09:08:59.184Z,4.30
2018-09-02T09:11:27.515Z,3.87
2018-09-02T09:13:56.069Z,4.40
2018-09-02T09:16:24.606Z,4.27
2018-09-02T09:18:53.099Z,4.47
2018-09-02T09:21:21.580Z,4.37
2018-09-02T09:23:50.162Z,5.27
2018-09-02T09:26:19.021Z,3.87
2018-09-02T09:28:47.535Z,3.60
2018-09-02T09:31:16.013Z,3.83
2018-09-02T09:33:44.528Z,3.60
2018-09-02T09:36:13.019Z,3.40
2018-09-02T09:38:41.526Z,3.50
2018-09-02T09:41:10.050Z,4.20
2018-09-02T09:43:38.508Z,3.83
2018-09-02T09:46:07.186Z,3.93
2018-09-02T09:48:35.613Z,3.63
2018-09-02T09:51:04.209Z,3.70
2018-09-02T09:53:32.812Z,4.63
2018-09-02T09:56:01.367Z,3.73
2018-09-02T09:58:29.887Z,3.57
2018-09-02T10:00:58.417Z,3.40
2018-09-02T10:03:26.864Z,3.40
2018-09-02T10:05:55.416Z,2.73
2018-09-02T10:08:23.945Z,3.70
2018-09-02T10:10:52.432Z,3.10
2018-09-02T10:13:21.024Z,3.20
2018-09-02T10:15:49.584Z,3.47
2018-09-02T10:18:18.176Z,3.17
2018-09-02T10:20:46.579Z,2.83
2018-09-02T10:23:15.066Z,3.07
2018-09-02T10:25:43.610Z,3.93
2018-09-02T10:28:12.168Z,3.30
2018-09-02T10:30:40.686Z,3.13
2018-09-02T10:33:09.186Z,3.53
2018-09-02T10:35:37.869Z,5.83
2018-09-02T10:38:06.370Z,3.43
2018-09-02T10:40:34.899Z,5.83
2018-09-02T10:43:03.416Z,2.37
2018-09-02T10:45:31.958Z,2.93
2018-09-02T10:48:00.478Z,2.80
2018-09-02T10:50:29.007Z,3.40
2018-09-02T10:52:57.614Z,3.47
2018-09-02T10:55:26.128Z,3.20
2018-09-02T10:57:54.682Z,4.00
2018-09-02T11:00:23.193Z,4.00
2018-09-02T11:02:51.764Z,3.47
2018-09-02T11:05:20.276Z,3.23
2018-09-02T11:07:48.867Z,3.20
2018-09-02T11:10:17.403Z,2.87
2018-09-02T11:12:45.960Z,2.97
2018-09-02T11:15:14.523Z,4.20
2018-09-02T11:17:43.173Z,3.00
2018-09-02T11:20:11.776Z,3.30
2018-09-02T11:22:40.330Z,2.60
2018-09-02T11:25:08.871Z,2.50
2018-09-02T11:27:37.429Z,3.17
2018-09-02T11:30:06.457Z,3.30
2018-09-02T11:32:35.005Z,4.03
2018-09-02T11:35:03.644Z,3.43
2018-09-02T11:37:32.134Z,3.33
2018-09-02T11:40:00.648Z,3.70
2018-09-02T11:42:29.160Z,2.90
2018-09-02T11:44:57.740Z,4.87
2018-09-02T11:47:26.222Z,3.50
2018-09-02T11:49:55.922Z,3.40
2018-09-02T11:52:24.480Z,4.20
2018-09-02T11:54:52.983Z,4.40
2018-09-02T11:57:22.117Z,3.37
2018-09-02T11:59:50.596Z,3.13
2018-09-02T12:02:19.105Z,3.50
2018-09-02T12:04:48.844Z,4.27
2018-09-02T12:07:17.305Z,3.60
2018-09-02T12:09:45.786Z,3.33
2018-09-02T12:12:17.562Z,3.70
2018-09-02T12:14:46.014Z,3.53
2018-09-02T12:17:14.527Z,3.63
2018-09-02T12:19:42.973Z,4.47
2018-09-02T12:22:11.553Z,3.60
2018-09-02T12:24:39.993Z,3.80
2018-09-02T12:27:08.462Z,4.43
2018-09-02T12:29:36.900Z,4.10
2018-09-02T12:32:05.423Z,4.60
2018-09-02T12:34:33.889Z,4.93
2018-09-02T12:37:02.379Z,4.87
2018-09-02T12:39:30.835Z,4.87
2018-09-02T12:41:59.378Z,4.80
2018-09-02T12:44:27.839Z,4.53
2018-09-02T12:46:56.341Z,4.70
2018-09-02T12:49:25.000Z,7.03
2018-09-02T12:51:53.843Z,5.23
2018-09-02T12:54:22.187Z,4.70
2018-09-02T12:56:50.915Z,4.80
2018-09-02T12:59:19.710Z,4.30
2018-09-02T13:01:48.620Z,4.93
2018-09-02T13:04:17.083Z,5.17
2018-09-02T13:06:45.583Z,5.60
2018-09-02T13:09:14.069Z,5.53
2018-09-02T13:11:42.790Z,5.00
2018-09-02T13:14:11.289Z,4.60
2018-09-02T13:16:39.808Z,5.07
2018-09-02T13:19:08.340Z,4.87
2018-09-02T13:21:36.807Z,5.17
2018-09-02T13:24:05.710Z,5.10
2018-09-02T13:26:34.176Z,5.17
2018-09-02T13:29:02.759Z,6.43
2018-09-02T13:31:31.325Z,5.80
2018-09-02T13:33:59.838Z,5.40
2018-09-02T13:36:28.890Z,5.50
2018-09-02T13:38:57.387Z,4.97
2018-09-02T13:41:25.874Z,5.37
2018-09-02T13:43:54.358Z,6.07
2018-09-02T13:46:22.850Z,6.57
2018-09-02T13:48:51.318Z,5.80
2018-09-02T13:51:19.779Z,6.03
2018-09-02T13:53:48.231Z,5.97
2018-09-02T13:56:16.720Z,5.67
2018-09-02T13:58:45.183Z,6.10
2018-09-02T14:01:13.774Z,5.83
2018-09-02T14:03:42.209Z,6.10
2018-09-02T14:06:10.740Z,6.93
2018-09-02T14:08:40.065Z,6.67
2018-09-02T14:11:08.600Z,7.97
2018-09-02T14:13:37.053Z,7.23
2018-09-02T14:16:05.636Z,7.17
2018-09-02T14:18:34.090Z,6.97
2018-09-02T14:21:02.570Z,7.70
2018-09-02T14:23:31.066Z,7.10
2018-09-02T14:25:59.604Z,6.90
2018-09-02T14:28:28.490Z,7.13
2018-09-02T14:30:57.010Z,7.90
2018-09-02T14:33:25.562Z,7.30
2018-09-02T14:35:54.095Z,8.10
2018-09-02T14:38:22.615Z,7.87
2018-09-02T14:40:51.112Z,7.83
2018-09-02T14:43:19.762Z,6.63
2018-09-02T14:45:48.271Z,7.87
2018-09-02T14:48:16.839Z,8.07
2018-09-02T14:50:45.378Z,7.90
2018-09-02T14:53:13.879Z,7.93
2018-09-02T14:55:42.409Z,8.30
2018-09-02T14:58:10.975Z,8.30
2018-09-02T15:00:39.492Z,7.53
2018-09-02T15:03:08.024Z,8.40
2018-09-02T15:05:36.478Z,7.80
2018-09-02T15:08:05.010Z,7.00
2018-09-02T15:10:33.516Z,7.53
2018-09-02T15:13:02.004Z,6.80
2018-09-02T15:15:30.455Z,7.60
2018-09-02T15:17:58.991Z,7.50
2018-09-02T15:20:27.486Z,7.70
2018-09-02T15:22:55.990Z,7.87
2018-09-02T15:25:24.487Z,8.37
2018-09-02T15:27:53.005Z,9.97
2018-09-02T15:30:22.262Z,8.60
2018-09-02T15:32:50.741Z,6.13
2018-09-02T15:35:19.395Z,6.60
2018-09-02T15:37:47.977Z,6.17
2018-09-02T15:40:16.440Z,6.07
2018-09-02T15:42:44.952Z,5.67
2018-09-02T15:45:13.441Z,5.80
2018-09-02T15:47:41.951Z,5.50
2018-09-02T15:50:10.406Z,5.77
2018-09-02T15:52:38.964Z,5.73
2018-09-02T15:55:07.619Z,5.43
2018-09-02T15:57:36.187Z,5.20
2018-09-02T16:00:05.094Z,6.63
2018-09-02T16:02:33.608Z,5.70
2018-09-02T16:05:02.106Z,5.47
2018-09-02T16:07:31.858Z,4.97
2018-09-02T16:10:01.881Z,5.43
2018-09-02T16:12:30.945Z,6.37
2018-09-02T16:14:59.830Z,5.53
2018-09-02T16:17:28.946Z,5.60
2018-09-02T16:19:57.437Z,6.13
2018-09-02T16:22:26.419Z,5.83
2018-09-02T16:24:55.165Z,6.33
2018-09-02T16:27:23.707Z,6.20
2018-09-02T16:29:52.333Z,6.23
2018-09-02T16:32:20.798Z,8.57
2018-09-02T16:34:49.296Z,5.80
2018-09-02T16:37:17.838Z,6.87
2018-09-02T16:39:46.287Z,6.33
2018-09-02T16:42:14.751Z,7.37
2018-09-02T16:44:43.213Z,7.47
2018-09-02T16:47:11.713Z,6.97
2018-09-02T16:49:40.161Z,7.53
2018-09-02T16:52:08.694Z,7.77
2018-09-02T16:54:37.810Z,8.27
2018-09-02T16:57:06.536Z,7.23
2018-09-02T16:59:34.995Z,8.10
2018-09-02T17:02:03.491Z,9.83
2018-09-02T17:04:33.961Z,7.80
2018-09-02T17:07:02.434Z,9.40
2018-09-02T17:09:31.028Z,9.67
2018-09-02T17:11:59.765Z,9.90
2018-09-02T17:14:28.100Z,9.47
2018-09-02T17:16:56.671Z,9.03
2018-09-02T17:19:28.144Z,10.43
2018-09-02T17:21:56.826Z,9.40
2018-09-02T17:24:25.322Z,10.20
2018-09-02T17:26:53.819Z,9.20
2018-09-02T17:29:22.340Z,9.57
2018-09-02T17:31:51.474Z,10.03
2018-09-02T17:34:20.075Z,11.73
2018-09-02T17:36:48.541Z,10.03
2018-09-02T17:39:17.040Z,10.80
2018-09-02T17:41:45.565Z,11.03
2018-09-02T17:44:14.102Z,10.97
2018-09-02T17:46:42.627Z,11.13
2018-09-02T17:49:11.213Z,11.73
2018-09-02T17:51:39.727Z,15.10
2018-09-02T17:54:08.338Z,11.70
2018-09-02T17:56:36.907Z,12.37
2018-09-02T17:59:05.759Z,13.17
2018-09-02T18:01:34.417Z,14.80
2018-09-02T18:04:03.104Z,11.80
2018-09-02T18:06:31.675Z,13.40
2018-09-02T18:09:00.294Z,13.03
2018-09-02T18:11:28.884Z,14.03
2018-09-02T18:13:57.617Z,15.47
2018-09-02T18:16:26.379Z,13.47
2018-09-02T18:18:55.011Z,13.73
2018-09-02T18:21:23.544Z,16.10
2018-09-02T18:23:52.196Z,15.60
2018-09-02T18:26:20.900Z,16.13
2018-09-02T18:28:50.217Z,16.43
2018-09-02T18:31:18.946Z,14.30
2018-09-02T18:33:47.715Z,13.93
2018-09-02T18:36:16.383Z,16.27
2018-09-02T18:38:44.929Z,16.60
2018-09-02T18:41:13.512Z,14.60
2018-09-02T18:43:42.041Z,16.57
2018-09-02T18:46:10.790Z,16.93
2018-09-02T18:48:39.302Z,16.13
2018-09-02T18:51:07.859Z,18.37
2018-09-02T18:53:36.363Z,16.67
2018-09-02T18:56:04.999Z,18.23
2018-09-02T18:58:33.600Z,19.20
2018-09-02T19:01:02.177Z,20.33
2018-09-02T19:03:30.694Z,18.83
2018-09-02T19:05:59.276Z,18.17
2018-09-02T19:08:27.825Z,18.00
2018-09-02T19:10:56.654Z,22.13
2018-09-02T19:13:25.137Z,23.20
2018-09-02T19:15:53.623Z,18.87
2018-09-02T19:18:23.078Z,19.13
2018-09-02T19:20:51.602Z,18.33
2018-09-02T19:23:20.101Z,21.73
2018-09-02T19:25:48.590Z,21.57
2018-09-02T19:28:17.831Z,18.57
2018-09-02T19:30:47.203Z,18.67
2018-09-02T19:33:15.858Z,18.00
2018-09-02T19:35:44.442Z,20.97
2018-09-02T19:38:12.945Z,18.47
2018-09-02T19:40:41.425Z,22.17
2018-09-02T19:43:10.052Z,17.57
2018-09-02T19:45:38.761Z,20.37
2018-09-02T19:48:11.382Z,22.93
2018-09-02T19:50:41.166Z,19.00
2018-09-02T19:53:10.266Z,21.20
2018-09-02T19:55:38.762Z,20.17
2018-09-02T19:58:08.605Z,20.93
2018-09-02T20:00:37.741Z,19.47
2018-09-02T20:03:07.095Z,18.17
2018-09-02T20:05:36.099Z,19.73
2018-09-02T20:08:04.773Z,20.90
2018-09-02T20:10:38.112Z,21.43
2018-09-02T20:13:06.857Z,20.30
2018-09-02T20:15:35.605Z,23.97
2018-09-02T20:18:07.472Z,22.03
2018-09-02T20:20:36.613Z,21.43
2018-09-02T20:23:05.347Z,21.53
2018-09-02T20:25:33.999Z,21.47
2018-09-02T20:28:03.119Z,20.83
2018-09-02T20:30:31.957Z,24.97
2018-09-02T20:33:00.859Z,20.77
2018-09-02T20:35:29.557Z,22.67
2018-09-02T20:37:58.678Z,21.97
2018-09-02T20:40:27.792Z,22.73
2018-09-02T20:42:56.631Z,20.53
2018-09-02T20:45:25.727Z,19.57
2018-09-02T20:47:54.199Z,22.37
2018-09-02T20:50:22.769Z,21.80
2018-09-02T20:52:51.296Z,20.97
2018-09-02T20:55:19.751Z,24.30
2018-09-02T20:57:48.262Z,24.80
2018-09-02T21:00:16.743Z,25.83
2018-09-02T21:02:45.315Z,25.17
2018-09-02T21:05:14.570Z,19.77
2018-09-02T21:07:43.053Z,23.87
2018-09-02T21:10:11.520Z,24.40
2018-09-02T21:12:39.980Z,26.13
2018-09-02T21:15:08.509Z,26.13
2018-09-02T21:17:37.542Z,25.37
2018-09-02T21:20:06.069Z,24.63
2018-09-02T21:22:34.588Z,25.97
2018-09-02T21:25:03.058Z,24.60
2018-09-02T21:27:31.542Z,21.43
2018-09-02T21:29:59.985Z,25.73
2018-09-02T21:32:28.450Z,23.00
2018-09-02T21:34:57.050Z,22.13
2018-09-02T21:37:25.519Z,21.90
2018-09-02T21:39:53.999Z,23.17
2018-09-02T21:42:22.507Z,27.60
2018-09-02T21:44:51.082Z,36.77
2018-09-02T21:47:19.668Z,40.20
2018-09-02T21:49:48.211Z,41.97
2018-09-02T21:52:16.707Z,34.17
2018-09-02T21:54:45.280Z,25.13
2018-09-02T21:57:13.923Z,25.60
2018-09-02T21:59:42.549Z,20.87
2018-09-02T22:02:11.080Z,22.83
2018-09-02T22:04:39.599Z,22.63
2018-09-02T22:07:08.099Z,24.43
2018-09-02T22:09:36.692Z,25.17
2018-09-02T22:12:05.203Z,21.37
2018-09-02T22:14:33.719Z,22.40
2018-09-02T22:17:02.176Z,20.57
2018-09-02T22:19:30.645Z,24.73
2018-09-02T22:21:59.126Z,21.37
2018-09-02T22:24:27.674Z,23.17
2018-09-02T22:26:56.141Z,24.30
2018-09-02T22:29:24.679Z,24.40
2018-09-02T22:31:53.127Z,22.47
2018-09-02T22:34:21.679Z,21.93
2018-09-02T22:36:50.164Z,23.13
2018-09-02T22:39:18.617Z,26.13
2018-09-02T22:41:47.231Z,24.87
2018-09-02T22:44:15.721Z,23.73
2018-09-02T22:46:44.187Z,24.13
2018-09-02T22:49:12.663Z,23.33
2018-09-02T22:51:41.144Z,23.57
2018-09-02T22:54:09.729Z,23.57
2018-09-02T22:56:38.222Z,24.20
2018-09-02T22:59:06.814Z,25.13
2018-09-02T23:01:35.353Z,27.07
2018-09-02T23:04:03.911Z,27.43
2018-09-02T23:06:32.404Z,24.43
2018-09-02T23:09:00.896Z,25.17
2018-09-02T23:11:29.348Z,26.00
2018-09-02T23:13:57.834Z,23.47
2018-09-02T23:16:26.349Z,23.30
2018-09-02T23:18:54.868Z,24.97
2018-09-02T23:21:23.333Z,27.53
2018-09-02T23:23:51.875Z,29.20
2018-09-02T23:26:20.361Z,26.50
2018-09-02T23:28:48.906Z,29.97
2018-09-02T23:31:17.510Z,27.47
2018-09-02T23:33:46.097Z,27.73
2018-09-02T23:36:14.604Z,28.60
2018-09-02T23:38:43.073Z,28.13
2018-09-02T23:41:11.580Z,26.00
2018-09-02T23:43:40.175Z,30.37
2018-09-02T23:46:08.650Z,26.10
2018-09-02T23:48:37.206Z,23.93
2018-09-02T23:51:05.942Z,28.77
2018-09-02T23:53:34.545Z,32.00
2018-09-02T23:56:03.010Z,28.53
2018-09-02T23:58:31.518Z,28.40
